sensor_id;sensor_type;location;lat;lon;timestamp;P1;durP1;ratioP1;P2;durP2;ratioP2
11300;SDS011;5706;50.650;13.380;2023-02-15T22:15:41;14.33;;;8.60;;
11300;SDS011;5706;50.650;13.380;2023-02-15T22:18:22;16.87;;;9.20;;
11300;SDS011;5706;50.650;13.380;2023-02-15T22:20:52;13.53;;;8.33;;
11300;SDS011;5706;50.650;13.380;2023-02-15T22:23:22;12.73;;;8.23;;
11300;SDS011;5706;50.650;13.380;2023-02-15T22:25:54;13.50;;;8.47;;
11300;SDS011;5706;50.650;13.380;2023-02-15T22:28:26;14.03;;;9.50;;
11300;SDS011;5706;50.650;13.380;2023-02-15T22:31:01;15.80;;;8.90;;
11300;SDS011;5706;50.650;13.380;2023-02-15T22:33:32;13.00;;;8.90;;
11300;SDS011;5706;50.650;13.380;2023-02-15T22:36:02;15.03;;;9.13;;
11300;SDS011;5706;50.650;13.380;2023-02-15T22:38:33;14.10;;;8.87;;
11300;SDS011;5706;50.650;13.380;2023-02-15T22:41:01;15.50;;;10.03;;
11300;SDS011;5706;50.650;13.380;2023-02-15T22:43:35;14.73;;;9.47;;
11300;SDS011;5706;50.650;13.380;2023-02-15T22:46:14;13.97;;;9.13;;
11300;SDS011;5706;50.650;13.380;2023-02-15T22:48:45;14.43;;;10.00;;
11300;SDS011;5706;50.650;13.380;2023-02-15T22:51:18;13.20;;;9.47;;
11300;SDS011;5706;50.650;13.380;2023-02-15T22:53:50;14.33;;;8.47;;
11300;SDS011;5706;50.650;13.380;2023-02-15T22:56:20;13.37;;;8.90;;
11300;SDS011;5706;50.650;13.380;2023-02-15T22:58:59;11.93;;;8.47;;
11300;SDS011;5706;50.650;13.380;2023-02-15T23:01:34;12.40;;;8.20;;
11300;SDS011;5706;50.650;13.380;2023-02-15T23:04:05;11.90;;;8.00;;
11300;SDS011;5706;50.650;13.380;2023-02-15T23:06:36;9.53;;;7.10;;
11300;SDS011;5706;50.650;13.380;2023-02-15T23:09:05;11.87;;;8.13;;
11300;SDS011;5706;50.650;13.380;2023-02-15T23:11:33;12.20;;;8.43;;
11300;SDS011;5706;50.650;13.380;2023-02-15T23:14:02;11.83;;;7.83;;
11300;SDS011;5706;50.650;13.380;2023-02-15T23:16:33;11.90;;;7.33;;
11300;SDS011;5706;50.650;13.380;2023-02-15T23:19:02;9.13;;;6.83;;
11300;SDS011;5706;50.650;13.380;2023-02-15T23:21:31;12.60;;;7.47;;
11300;SDS011;5706;50.650;13.380;2023-02-15T23:24:07;10.93;;;7.07;;
11300;SDS011;5706;50.650;13.380;2023-02-15T23:26:44;11.80;;;7.43;;
11300;SDS011;5706;50.650;13.380;2023-02-15T23:29:14;9.50;;;7.23;;
11300;SDS011;5706;50.650;13.380;2023-02-15T23:31:47;10.93;;;7.00;;
11300;SDS011;5706;50.650;13.380;2023-02-15T23:34:19;10.83;;;6.50;;
11300;SDS011;5706;50.650;13.380;2023-02-15T23:36:50;9.03;;;7.00;;
11300;SDS011;5706;50.650;13.380;2023-02-15T23:39:20;11.23;;;7.27;;
11300;SDS011;5706;50.650;13.380;2023-02-15T23:42:08;11.77;;;7.17;;
11300;SDS011;5706;50.650;13.380;2023-02-15T23:44:39;12.47;;;7.70;;
11300;SDS011;5706;50.650;13.380;2023-02-15T23:47:17;10.07;;;6.77;;
11300;SDS011;5706;50.650;13.380;2023-02-15T23:50:14;10.10;;;6.37;;
11300;SDS011;5706;50.650;13.380;2023-02-15T23:52:44;8.83;;;6.40;;
11300;SDS011;5706;50.650;13.380;2023-02-15T23:55:12;10.43;;;6.40;;
11300;SDS011;5706;50.650;13.380;2023-02-15T23:57:41;9.73;;;5.93;;
